LDRI/RJK METAR and TAF weather

Enter ICAO airport designator
Station Type Date Time Source
LDRI METAR 2019/08/25 13:30 UTC NOAA

LDRI 251330Z VRB04KT 9999 FEW043TCU 31/17 Q1016


Station Type Date Time Source
LDRI Decoded METAR 2019/08/25 13:30 UTC NOAA

Station name not available
Aug 25, 2019 - 09:30 AM EDT / 2019.08.25 1330 UTC
Wind: Variable at 5 MPH (4 KT):0
Visibility: greater than 7 mile(s):0
Sky conditions: mostly clear
Weather: Towering cumulus clouds observed
Temperature: 87 F (31 C)
Dew Point: 62 F (17 C)
Relative Humidity: 43%
Pressure (altimeter): 30.00 in. Hg (1016 hPa)
ob: LDRI 251330Z VRB04KT 9999 FEW043TCU 31/17 Q1016
cycle: 13

Station Type Date Time Source
LDRI TAF 2019/08/25 12:27 UTC NOAA

TAF LDRI 251125Z 2512/2612 04006KT CAVOK TX31/2513Z TN22/2604Z PROB30
TEMPO 2513/2518 32008KT TS FEW040CB SCT050 PROB30
TEMPO 2609/2612 TSRA FEW035CB SCT040

Example: see airport list